Time;durP1;ratioP1;P1;durP2;ratioP2;P2;SDS_P1;SDS_P2;PMS_P1;PMS_P2;Temp;Humidity;BMP_temperature;BMP_pressure;BME280_temperature;BME280_humidity;BME280_pressure;Samples;Min_cycle;Max_cycle;Signal;HPM_P1;HPM_P2
2023/09/11 00:00:08;;;;;;;15.37;9.23;;;19.60;71.70;;;;;;5077302;28;20536;-79
2023/09/11 00:02:36;;;;;;;13.50;8.20;;;19.60;71.80;;;;;;5088491;28;20460;-78
2023/09/11 00:05:05;;;;;;;15.60;8.07;;;19.50;71.80;;;;;;5089671;28;20514;-78
2023/09/11 00:07:33;;;;;;;15.40;8.03;;;19.50;71.70;;;;;;5089814;28;20471;-79
2023/09/11 00:10:01;;;;;;;16.90;8.70;;;19.40;71.80;;;;;;5090126;28;20504;-78
2023/09/11 00:12:29;;;;;;;14.10;9.37;;;19.40;71.90;;;;;;5090021;28;20484;-78
2023/09/11 00:14:57;;;;;;;12.43;8.53;;;19.40;71.90;;;;;;5088775;28;20456;-80
2023/09/11 00:17:26;;;;;;;11.50;8.43;;;19.40;71.90;;;;;;5086563;28;20844;-79
2023/09/11 00:19:56;;;;;;;13.80;8.13;;;19.40;72.00;;;;;;5089668;28;20452;-78
2023/09/11 00:22:23;;;;;;;15.70;8.70;;;19.40;72.00;;;;;;5089300;28;20517;-77
2023/09/11 00:24:51;;;;;;;14.63;8.17;;;19.40;72.00;;;;;;5089963;28;20540;-77
2023/09/11 00:27:19;;;;;;;16.67;8.50;;;19.40;72.10;;;;;;5088722;28;21030;-78
2023/09/11 00:29:47;;;;;;;17.87;9.17;;;19.30;72.10;;;;;;5069873;28;20553;-80
2023/09/11 00:32:15;;;;;;;14.40;8.33;;;19.30;72.20;;;;;;5067268;28;20500;-80
2023/09/11 00:34:45;;;;;;;12.60;8.90;;;19.30;72.30;;;;;;5085602;28;20446;-82
2023/09/11 00:37:14;;;;;;;14.10;8.37;;;19.30;72.40;;;;;;5071955;28;21064;-80
2023/09/11 00:39:42;;;;;;;14.97;9.40;;;19.20;72.40;;;;;;5083387;28;20545;-81
2023/09/11 00:42:09;;;;;;;15.50;9.60;;;19.20;72.40;;;;;;5080185;28;20567;-78
2023/09/11 00:44:38;;;;;;;14.20;8.70;;;19.20;72.50;;;;;;5069262;28;20472;-77
2023/09/11 00:47:06;;;;;;;16.57;8.77;;;19.20;72.60;;;;;;5083029;28;20461;-78
2023/09/11 00:49:34;;;;;;;17.67;8.07;;;19.20;72.60;;;;;;5081591;28;20540;-78
2023/09/11 00:52:04;;;;;;;14.40;8.90;;;19.20;72.60;;;;;;5082957;28;20499;-79
2023/09/11 00:54:32;;;;;;;13.33;8.80;;;19.30;72.60;;;;;;5083731;28;20498;-76
2023/09/11 00:57:01;;;;;;;15.63;8.47;;;19.30;72.60;;;;;;5082869;28;20477;-75
2023/09/11 00:59:31;;;;;;;10.70;7.80;;;19.30;72.50;;;;;;5084846;28;20453;-80
2023/09/11 01:02:00;;;;;;;12.27;9.00;;;19.30;72.50;;;;;;5077368;28;20466;-78
2023/09/11 01:04:29;;;;;;;13.03;8.40;;;19.30;72.40;;;;;;5072236;28;20540;-77
2023/09/11 01:06:57;;;;;;;13.27;8.77;;;19.30;72.30;;;;;;5085956;28;20822;-77
2023/09/11 01:09:26;;;;;;;17.63;8.93;;;19.20;72.20;;;;;;5066583;28;20452;-76
2023/09/11 01:11:54;;;;;;;12.13;8.43;;;19.20;72.30;;;;;;5067150;28;20477;-80
2023/09/11 01:14:23;;;;;;;13.43;8.40;;;19.20;72.30;;;;;;5082864;28;20472;-78
2023/09/11 01:21:51;;;;;;;16.40;9.17;;;19.20;72.40;;;;;;5081025;28;20423;-78
2023/09/11 01:24:51;;;;;;;17.80;9.13;;;19.00;72.20;;;;;;5067854;28;20454;-78
2023/09/11 01:27:45;;;;;;;14.80;7.97;;;18.90;72.40;;;;;;5085842;28;20939;-80
2023/09/11 01:30:15;;;;;;;13.90;9.40;;;18.90;72.50;;;;;;5080851;28;20460;-79
2023/09/11 01:32:45;;;;;;;18.97;9.87;;;18.90;72.60;;;;;;5090455;28;21028;-78
2023/09/11 01:35:13;;;;;;;15.07;8.50;;;18.90;72.70;;;;;;5071615;28;20513;-80
2023/09/11 01:37:48;;;;;;;12.50;8.97;;;18.90;72.60;;;;;;5070223;28;20471;-79
2023/09/11 01:40:16;;;;;;;13.70;9.87;;;18.90;72.60;;;;;;5088120;28;20985;-80
2023/09/11 01:42:49;;;;;;;15.50;9.00;;;18.90;72.60;;;;;;5068768;28;20526;-79
2023/09/11 01:45:19;;;;;;;20.60;9.90;;;18.80;72.60;;;;;;5067147;28;21274;-80
2023/09/11 01:47:50;;;;;;;15.70;9.00;;;18.80;72.60;;;;;;5073164;28;20538;-78
2023/09/11 01:50:20;;;;;;;13.77;8.90;;;18.80;72.60;;;;;;5065468;28;21160;-79
2023/09/11 01:52:50;;;;;;;12.37;8.70;;;18.70;72.60;;;;;;5089309;28;20533;-82
2023/09/11 01:55:21;;;;;;;12.33;8.53;;;18.70;72.70;;;;;;5090455;28;20452;-79
2023/09/11 01:57:50;;;;;;;14.00;8.60;;;18.70;72.80;;;;;;5091278;28;20457;-80
2023/09/11 02:00:19;;;;;;;15.43;8.60;;;18.70;72.90;;;;;;5069168;28;20506;-78
2023/09/11 02:02:51;;;;;;;16.13;8.80;;;18.80;72.80;;;;;;5087867;28;20467;-80
2023/09/11 02:05:20;;;;;;;13.30;7.93;;;18.80;72.90;;;;;;5087874;28;20551;-77
2023/09/11 02:07:48;;;;;;;12.57;8.87;;;18.80;72.80;;;;;;5088261;28;20461;-81
2023/09/11 02:10:16;;;;;;;13.10;8.50;;;18.80;72.80;;;;;;5087138;28;20955;-77
2023/09/11 02:12:44;;;;;;;12.73;8.87;;;18.80;72.80;;;;;;5063996;28;20573;-78
2023/09/11 02:15:12;;;;;;;15.40;8.90;;;18.80;72.70;;;;;;5085922;28;20448;-79
2023/09/11 02:17:42;;;;;;;15.73;9.47;;;18.80;72.80;;;;;;5086321;28;20457;-80
2023/09/11 02:20:10;;;;;;;15.00;8.77;;;18.70;72.80;;;;;;5087608;28;20940;-79
2023/09/11 02:22:38;;;;;;;14.37;9.47;;;18.70;72.70;;;;;;5070305;28;20475;-78
2023/09/11 02:25:07;;;;;;;14.60;9.57;;;18.60;72.70;;;;;;5069691;28;20453;-78
2023/09/11 02:27:35;;;;;;;14.47;9.53;;;18.60;72.80;;;;;;5084794;28;20456;-76
2023/09/11 02:30:05;;;;;;;16.40;9.23;;;18.60;72.80;;;;;;5068628;28;21027;-78
2023/09/11 02:32:32;;;;;;;12.70;8.43;;;18.50;72.70;;;;;;5085040;28;20487;-80
2023/09/11 02:35:02;;;;;;;14.37;8.83;;;18.50;72.80;;;;;;5070291;28;20939;-80
2023/09/11 02:37:30;;;;;;;13.57;8.83;;;18.40;72.90;;;;;;5069680;28;20811;-78
2023/09/11 02:39:59;;;;;;;13.63;8.80;;;18.40;73.00;;;;;;5069633;28;20457;-78
2023/09/11 02:42:27;;;;;;;14.13;9.47;;;18.40;73.00;;;;;;5069294;28;20457;-79
2023/09/11 02:44:55;;;;;;;16.57;9.50;;;18.40;73.00;;;;;;5069653;28;20471;-77
2023/09/11 02:47:23;;;;;;;16.43;9.70;;;18.40;73.00;;;;;;5087779;28;20461;-77
2023/09/11 02:49:51;;;;;;;16.20;9.83;;;18.40;73.00;;;;;;5086868;28;20463;-80
2023/09/11 02:52:20;;;;;;;13.27;9.33;;;18.40;73.10;;;;;;5069755;28;20884;-77
2023/09/11 02:54:48;;;;;;;17.30;10.93;;;18.40;73.00;;;;;;5070012;28;20548;-78
2023/09/11 02:57:17;;;;;;;14.30;8.80;;;18.30;73.10;;;;;;5088997;28;20452;-77
2023/09/11 02:59:45;;;;;;;17.30;9.30;;;18.20;73.20;;;;;;5087324;28;20473;-76
2023/09/11 03:02:13;;;;;;;16.30;9.30;;;18.20;73.30;;;;;;5087524;28;20477;-79
2023/09/11 03:04:41;;;;;;;14.23;9.10;;;18.20;73.40;;;;;;5089433;28;20535;-80
2023/09/11 03:07:09;;;;;;;23.63;9.70;;;18.30;73.30;;;;;;5091205;28;20559;-79
2023/09/11 03:09:38;;;;;;;19.33;9.23;;;18.30;73.30;;;;;;5068892;28;20803;-78
2023/09/11 03:12:07;;;;;;;15.93;9.70;;;18.30;73.30;;;;;;5088196;28;20477;-77
2023/09/11 03:14:35;;;;;;;17.90;9.97;;;18.30;73.20;;;;;;5088735;28;20555;-78
2023/09/11 03:17:03;;;;;;;14.20;9.50;;;18.30;73.30;;;;;;5071979;28;20457;-79
2023/09/11 03:19:34;;;;;;;14.40;9.10;;;18.30;73.30;;;;;;5090082;28;20484;-80
2023/09/11 03:22:02;;;;;;;14.43;9.10;;;18.30;73.30;;;;;;5072198;28;20820;-80
2023/09/11 03:24:31;;;;;;;21.43;9.67;;;18.30;73.20;;;;;;5072567;28;20481;-79
2023/09/11 03:27:00;;;;;;;13.70;9.07;;;18.30;73.20;;;;;;5072387;28;21077;-78
2023/09/11 03:29:28;;;;;;;14.07;8.80;;;18.30;73.30;;;;;;5072083;28;20463;-80
2023/09/11 03:31:57;;;;;;;19.37;9.70;;;18.30;73.30;;;;;;5068478;28;20534;-79
2023/09/11 03:34:25;;;;;;;15.57;9.50;;;18.30;73.30;;;;;;5090460;28;20455;-77
2023/09/11 03:36:53;;;;;;;16.77;9.60;;;18.30;73.30;;;;;;5071656;28;20455;-78
2023/09/11 03:39:21;;;;;;;13.40;9.20;;;18.30;73.20;;;;;;5104688;28;20488;-78
2023/09/11 03:41:49;;;;;;;13.43;9.53;;;18.30;73.20;;;;;;5089636;28;20486;-78
2023/09/11 03:44:18;;;;;;;12.47;9.37;;;18.30;73.10;;;;;;5085706;28;20457;-79
2023/09/11 03:46:46;;;;;;;14.90;9.30;;;18.30;73.10;;;;;;5104823;28;20456;-78
2023/09/11 03:49:14;;;;;;;15.33;9.30;;;18.20;73.20;;;;;;5090610;28;20535;-80
2023/09/11 03:51:42;;;;;;;14.30;9.07;;;18.20;73.20;;;;;;5070880;28;20801;-79
2023/09/11 03:54:12;;;;;;;13.40;9.87;;;18.10;73.20;;;;;;5069501;28;20550;-79
2023/09/11 03:56:40;;;;;;;15.03;9.57;;;18.10;73.20;;;;;;5070002;28;20897;-78
2023/09/11 03:59:09;;;;;;;15.50;9.00;;;18.00;73.30;;;;;;5071632;28;20457;-77
2023/09/11 04:01:40;;;;;;;15.80;9.73;;;18.00;73.40;;;;;;5083664;28;20490;-79
2023/09/11 04:04:09;;;;;;;19.50;10.17;;;18.10;73.40;;;;;;5091634;28;20460;-77
2023/09/11 04:06:38;;;;;;;17.73;10.43;;;18.10;73.40;;;;;;5110044;28;20455;-77
2023/09/11 04:09:08;;;;;;;12.80;8.93;;;18.00;73.40;;;;;;5088271;28;20467;-80
2023/09/11 04:11:36;;;;;;;13.00;9.17;;;18.10;73.40;;;;;;5107681;28;20540;-77
2023/09/11 04:14:05;;;;;;;13.67;9.43;;;18.00;73.40;;;;;;5108949;28;20460;-77
2023/09/11 04:16:32;;;;;;;16.40;10.30;;;18.00;73.40;;;;;;5108230;28;20455;-77
2023/09/11 04:19:02;;;;;;;20.13;11.13;;;18.00;73.40;;;;;;5091827;28;20604;-76
2023/09/11 04:21:33;;;;;;;14.73;10.00;;;18.00;73.30;;;;;;5104855;28;20833;-78
2023/09/11 04:24:02;;;;;;;19.20;10.93;;;17.90;73.30;;;;;;5110344;28;20505;-78
2023/09/11 04:26:30;;;;;;;15.10;9.87;;;17.90;73.40;;;;;;5105089;28;20554;-80
2023/09/11 04:28:58;;;;;;;15.53;10.77;;;17.80;73.50;;;;;;5092195;28;20450;-79
2023/09/11 04:31:26;;;;;;;15.10;10.50;;;17.80;73.60;;;;;;5108864;28;20547;-76
2023/09/11 04:33:54;;;;;;;15.27;10.30;;;17.90;73.60;;;;;;5105100;27;21323;-78
2023/09/11 04:36:23;;;;;;;19.13;10.60;;;17.90;73.60;;;;;;5087689;28;20518;-78
2023/09/11 04:38:51;;;;;;;17.07;10.90;;;17.90;73.60;;;;;;5087693;28;20947;-79
2023/09/11 04:41:19;;;;;;;15.43;10.83;;;17.90;73.70;;;;;;5092357;28;20459;-78
2023/09/11 04:43:48;;;;;;;17.20;10.60;;;17.90;73.60;;;;;;5094317;27;20479;-80
2023/09/11 04:46:17;;;;;;;16.60;11.50;;;17.90;73.70;;;;;;5092419;28;20470;-80
2023/09/11 04:48:45;;;;;;;15.40;10.70;;;17.90;73.60;;;;;;5110698;28;20459;-78
2023/09/11 04:51:13;;;;;;;14.27;10.53;;;17.90;73.60;;;;;;5092486;28;20476;-80
2023/09/11 04:53:43;;;;;;;20.90;11.07;;;17.80;73.60;;;;;;5092933;28;20520;-80
2023/09/11 04:56:11;;;;;;;21.13;11.60;;;17.80;73.60;;;;;;5101177;28;20996;-80
2023/09/11 04:58:39;;;;;;;16.30;11.83;;;17.80;73.60;;;;;;5118234;28;20448;-79
2023/09/11 05:01:09;;;;;;;17.60;11.03;;;17.80;73.60;;;;;;5088635;28;21041;-80
2023/09/11 05:03:38;;;;;;;16.03;11.37;;;17.80;73.60;;;;;;5087775;28;20491;-79
2023/09/11 05:06:07;;;;;;;18.73;11.70;;;17.70;73.60;;;;;;5091064;28;20461;-78
2023/09/11 05:08:35;;;;;;;16.97;12.57;;;17.70;73.70;;;;;;5090665;28;20458;-79
2023/09/11 05:11:26;;;;;;;16.33;11.87;;;17.70;73.80;;;;;;5094359;28;20456;-79
2023/09/11 05:13:55;;;;;;;18.80;12.40;;;17.70;73.80;;;;;;5108740;28;21052;-79
2023/09/11 05:16:23;;;;;;;18.77;11.60;;;17.70;73.90;;;;;;5090679;28;20464;-78
2023/09/11 05:18:51;;;;;;;15.30;10.57;;;17.70;73.90;;;;;;5105058;28;21148;-76
2023/09/11 05:21:19;;;;;;;16.77;11.50;;;17.70;73.90;;;;;;5105676;28;20470;-79
2023/09/11 05:23:47;;;;;;;17.77;11.27;;;17.70;73.90;;;;;;5103071;28;20460;-78
2023/09/11 05:26:15;;;;;;;15.43;10.47;;;17.70;73.90;;;;;;5088297;28;20460;-79
2023/09/11 05:28:44;;;;;;;17.50;11.03;;;17.70;74.00;;;;;;5102489;28;20460;-77
2023/09/11 05:31:13;;;;;;;18.27;11.10;;;17.70;74.10;;;;;;5107828;28;20491;-78
2023/09/11 05:33:41;;;;;;;21.23;13.23;;;17.70;74.10;;;;;;5104699;28;20508;-78
2023/09/11 05:36:09;;;;;;;21.87;14.87;;;17.70;74.10;;;;;;5090267;28;20457;-78
2023/09/11 05:38:37;;;;;;;30.50;14.90;;;17.80;74.20;;;;;;5108253;28;21391;-78
2023/09/11 05:41:05;;;;;;;29.00;16.00;;;17.80;74.20;;;;;;5104423;28;20456;-76
2023/09/11 05:43:33;;;;;;;27.93;15.60;;;17.80;74.30;;;;;;5108412;28;20682;-78
2023/09/11 05:46:03;;;;;;;24.67;15.73;;;17.80;74.30;;;;;;5104139;28;20840;-78
2023/09/11 05:48:31;;;;;;;24.10;16.03;;;17.80;74.40;;;;;;5094340;28;20460;-79
2023/09/11 05:51:00;;;;;;;23.30;15.40;;;17.70;74.60;;;;;;5083032;28;20489;-78
2023/09/11 05:53:28;;;;;;;24.57;16.27;;;17.70;74.80;;;;;;5103999;28;20515;-78
2023/09/11 05:55:57;;;;;;;26.93;16.47;;;17.80;75.00;;;;;;5090707;28;20806;-78
2023/09/11 05:58:26;;;;;;;33.83;23.10;;;17.80;75.00;;;;;;5108072;28;20440;-78
2023/09/11 06:00:54;;;;;;;25.60;17.70;;;17.90;75.00;;;;;;5108536;28;20474;-78
2023/09/11 06:03:23;;;;;;;23.73;15.67;;;18.00;75.00;;;;;;5106778;28;20457;-79
2023/09/11 06:05:51;;;;;;;22.60;14.87;;;18.00;75.00;;;;;;5107652;28;20464;-79
2023/09/11 06:08:20;;;;;;;27.13;16.90;;;18.00;75.00;;;;;;5108116;28;20451;-78
2023/09/11 06:10:48;;;;;;;25.97;16.23;;;18.10;75.10;;;;;;5107820;28;20508;-77
2023/09/11 06:13:16;;;;;;;22.03;14.50;;;18.10;75.10;;;;;;5106310;28;21090;-78
2023/09/11 06:15:45;;;;;;;23.23;14.17;;;18.10;75.20;;;;;;5090806;28;20456;-80
2023/09/11 06:18:13;;;;;;;25.30;15.30;;;18.20;75.30;;;;;;5105337;28;20452;-76
2023/09/11 06:20:42;;;;;;;22.33;13.87;;;18.20;75.40;;;;;;5103940;28;20821;-78
2023/09/11 06:23:12;;;;;;;19.20;14.40;;;18.30;75.60;;;;;;5105195;28;20448;-78
2023/09/11 06:25:41;;;;;;;23.50;15.90;;;18.30;75.70;;;;;;5104777;28;20451;-77
2023/09/11 06:28:09;;;;;;;19.87;14.47;;;18.40;75.90;;;;;;5108983;28;20466;-79
2023/09/11 06:30:37;;;;;;;21.07;13.47;;;18.40;76.00;;;;;;5106201;28;20547;-79
2023/09/11 06:33:05;;;;;;;19.90;14.20;;;18.50;76.10;;;;;;5108555;28;20531;-79
2023/09/11 06:35:33;;;;;;;20.37;14.20;;;18.50;76.20;;;;;;5088461;28;20444;-79
2023/09/11 06:38:03;;;;;;;19.00;14.63;;;18.50;76.40;;;;;;5107673;28;21033;-77
2023/09/11 06:40:31;;;;;;;25.43;14.80;;;18.60;76.50;;;;;;5092940;28;20455;-78
2023/09/11 06:42:59;;;;;;;18.07;13.33;;;18.60;76.60;;;;;;5093643;28;20464;-78
2023/09/11 06:45:27;;;;;;;24.73;15.37;;;18.70;76.80;;;;;;5112713;28;20456;-78
2023/09/11 06:47:55;;;;;;;19.93;14.40;;;18.70;76.90;;;;;;5113006;28;20466;-78
2023/09/11 06:50:23;;;;;;;18.27;13.87;;;18.80;77.10;;;;;;5089614;28;20810;-77
2023/09/11 06:52:51;;;;;;;23.53;15.40;;;18.80;77.30;;;;;;5110510;28;20954;-78
2023/09/11 06:55:21;;;;;;;21.57;15.23;;;18.90;77.40;;;;;;5111334;28;20494;-78
2023/09/11 06:57:56;;;;;;;20.30;15.40;;;18.90;77.60;;;;;;5107046;28;20750;-78
2023/09/11 07:00:24;;;;;;;18.37;13.90;;;19.00;77.80;;;;;;5106511;28;20451;-79
2023/09/11 07:02:52;;;;;;;20.30;13.87;;;19.00;77.90;;;;;;5113008;28;20805;-79
2023/09/11 07:05:22;;;;;;;22.23;14.33;;;19.10;78.00;;;;;;5095067;28;20486;-77
2023/09/11 07:07:50;;;;;;;21.67;15.23;;;19.20;78.10;;;;;;5095273;28;20461;-77
2023/09/11 07:10:18;;;;;;;21.40;13.67;;;19.20;78.20;;;;;;5113106;28;20455;-76
2023/09/11 07:13:02;;;;;;;23.37;14.00;;;19.30;78.20;;;;;;5109919;28;20459;-79
2023/09/11 07:15:30;;;;;;;19.60;12.97;;;19.30;78.30;;;;;;5110690;28;20482;-77
2023/09/11 07:17:58;;;;;;;20.17;14.17;;;19.40;78.30;;;;;;5111066;28;20455;-77
2023/09/11 07:20:26;;;;;;;18.27;12.50;;;19.40;78.40;;;;;;5110301;28;20490;-77
2023/09/11 07:22:55;;;;;;;20.77;14.50;;;19.40;78.60;;;;;;5111075;28;20455;-78
2023/09/11 07:25:23;;;;;;;23.40;13.73;;;19.50;78.70;;;;;;5091803;28;20451;-79
2023/09/11 07:27:54;;;;;;;18.80;13.20;;;19.50;78.80;;;;;;5109360;28;20444;-79
2023/09/11 07:30:24;;;;;;;22.90;14.10;;;19.50;79.00;;;;;;5106726;28;20447;-78
2023/09/11 07:32:53;;;;;;;21.63;13.40;;;19.60;79.00;;;;;;5092865;28;20858;-80
2023/09/11 07:35:22;;;;;;;16.90;12.30;;;19.70;79.10;;;;;;5090852;28;20479;-77
2023/09/11 07:37:50;;;;;;;20.03;12.60;;;19.70;79.10;;;;;;5091117;28;20463;-77
2023/09/11 07:40:18;;;;;;;22.03;12.40;;;19.80;79.00;;;;;;5091907;28;20452;-78
2023/09/11 07:42:46;;;;;;;20.30;12.80;;;19.80;79.10;;;;;;5106169;28;20977;-79
2023/09/11 07:45:14;;;;;;;17.50;12.93;;;19.90;79.10;;;;;;5109845;28;20471;-78
2023/09/11 07:47:43;;;;;;;18.27;12.67;;;19.90;79.20;;;;;;5110664;28;20652;-79
2023/09/11 07:50:12;;;;;;;18.73;12.47;;;20.00;79.20;;;;;;5107177;28;20460;-79
2023/09/11 07:52:40;;;;;;;19.20;12.40;;;20.00;79.20;;;;;;5110618;28;20782;-76
2023/09/11 07:55:09;;;;;;;19.30;13.50;;;20.10;79.30;;;;;;5110094;28;20476;-79
2023/09/11 07:57:39;;;;;;;20.07;13.53;;;20.10;79.40;;;;;;5110559;28;20709;-77
2023/09/11 08:00:09;;;;;;;22.83;12.40;;;20.20;79.40;;;;;;5109722;28;20447;-77
2023/09/11 08:02:37;;;;;;;21.00;12.50;;;20.20;79.50;;;;;;5109836;28;20505;-79
2023/09/11 08:05:07;;;;;;;17.43;11.30;;;20.30;79.50;;;;;;5107901;28;21045;-77
2023/09/11 08:07:35;;;;;;;18.27;12.07;;;20.30;79.50;;;;;;5110183;28;20496;-79
2023/09/11 08:10:03;;;;;;;17.10;11.37;;;20.40;79.60;;;;;;5108821;28;20991;-78
2023/09/11 08:12:34;;;;;;;18.17;11.97;;;20.50;79.50;;;;;;5111200;28;20447;-80
2023/09/11 08:15:03;;;;;;;15.77;11.40;;;20.50;79.50;;;;;;5111414;28;20479;-77
2023/09/11 08:17:32;;;;;;;19.97;12.57;;;20.60;79.50;;;;;;5110135;28;20459;-78
2023/09/11 08:20:00;;;;;;;21.80;11.73;;;20.60;79.50;;;;;;5109008;28;20451;-79
2023/09/11 08:22:29;;;;;;;20.20;11.47;;;20.70;79.50;;;;;;5111070;28;20868;-77
2023/09/11 08:24:57;;;;;;;18.60;11.27;;;20.70;79.50;;;;;;5102814;28;20903;-80
2023/09/11 08:27:26;;;;;;;17.20;12.20;;;20.80;79.50;;;;;;5111136;28;20988;-80
2023/09/11 08:29:55;;;;;;;22.67;12.23;;;20.80;79.60;;;;;;5110905;28;20456;-79
2023/09/11 08:32:23;;;;;;;20.50;11.73;;;20.80;79.60;;;;;;5107673;28;20487;-78
2023/09/11 08:34:51;;;;;;;16.33;10.97;;;20.90;79.70;;;;;;5091963;28;20475;-78
2023/09/11 08:37:19;;;;;;;15.37;10.67;;;21.00;79.70;;;;;;5109856;28;20466;-78
2023/09/11 08:39:49;;;;;;;20.17;10.47;;;21.00;79.70;;;;;;5109488;28;21002;-79
2023/09/11 08:42:17;;;;;;;16.10;10.70;;;21.00;79.60;;;;;;5109256;28;20458;-80
2023/09/11 08:44:45;;;;;;;16.00;10.40;;;21.10;79.50;;;;;;5109949;28;20961;-80
2023/09/11 08:47:15;;;;;;;18.13;10.27;;;21.20;79.50;;;;;;5094749;28;20462;-80
2023/09/11 08:49:51;;;;;;;17.30;9.87;;;21.20;79.40;;;;;;5112973;28;20444;-80
2023/09/11 08:52:20;;;;;;;14.60;10.40;;;21.30;79.40;;;;;;5112956;28;20458;-78
2023/09/11 08:54:52;;;;;;;16.57;10.27;;;21.40;79.30;;;;;;5101920;28;20476;-79
2023/09/11 08:57:22;;;;;;;15.90;10.47;;;21.40;79.30;;;;;;5110026;28;20455;-79
2023/09/11 09:00:01;;;;;;;16.43;10.80;;;21.50;79.20;;;;;;5107752;28;20956;-77
2023/09/11 09:02:29;;;;;;;17.37;12.87;;;21.60;79.10;;;;;;5107276;28;20483;-79
2023/09/11 09:04:58;;;;;;;15.63;10.53;;;21.60;78.90;;;;;;5089898;28;20807;-79
2023/09/11 09:07:27;;;;;;;16.73;9.80;;;21.70;78.90;;;;;;5106056;28;20465;-79
2023/09/11 09:09:57;;;;;;;17.50;11.70;;;21.80;78.80;;;;;;5091243;28;20493;-79
2023/09/11 09:12:26;;;;;;;13.73;9.80;;;21.90;78.60;;;;;;5105042;28;20452;-77
2023/09/11 09:14:54;;;;;;;15.27;10.10;;;21.90;78.40;;;;;;5109957;28;20476;-79
2023/09/11 09:17:22;;;;;;;17.73;10.93;;;22.00;78.20;;;;;;5109763;28;20451;-79
2023/09/11 09:19:50;;;;;;;14.17;8.27;;;22.10;78.10;;;;;;5106699;28;20454;-78
2023/09/11 09:22:18;;;;;;;26.10;9.93;;;22.10;78.00;;;;;;5109347;28;20460;-77
2023/09/11 09:24:51;;;;;;;17.73;9.20;;;22.20;77.80;;;;;;5107132;28;20458;-78
2023/09/11 09:27:24;;;;;;;15.03;9.70;;;22.20;77.70;;;;;;5106667;28;20539;-79
2023/09/11 09:29:55;;;;;;;13.73;9.13;;;22.30;77.60;;;;;;5105252;28;20520;-78
2023/09/11 09:32:23;;;;;;;13.27;8.70;;;22.40;77.50;;;;;;5105934;28;20508;-79
2023/09/11 09:34:55;;;;;;;14.63;8.97;;;22.50;77.30;;;;;;5106405;28;20925;-78
2023/09/11 09:37:23;;;;;;;15.00;9.20;;;22.60;77.00;;;;;;5108710;28;20452;-80
2023/09/11 09:39:51;;;;;;;16.00;9.20;;;22.70;76.70;;;;;;5108204;28;20452;-80
2023/09/11 09:42:21;;;;;;;13.47;8.73;;;22.70;76.50;;;;;;5108066;28;20510;-78
2023/09/11 09:44:52;;;;;;;14.17;8.70;;;22.80;76.20;;;;;;5104589;28;20462;-77
2023/09/11 09:47:22;;;;;;;15.30;8.37;;;22.90;76.00;;;;;;5107554;28;20472;-76
2023/09/11 09:49:52;;;;;;;12.70;8.83;;;22.90;75.70;;;;;;5107913;28;20483;-77
2023/09/11 09:52:23;;;;;;;11.97;8.60;;;23.00;75.50;;;;;;5090439;28;20548;-77
2023/09/11 09:54:54;;;;;;;12.37;8.43;;;23.00;75.20;;;;;;5106992;28;20460;-76
2023/09/11 09:57:26;;;;;;;17.23;8.70;;;23.10;75.10;;;;;;5108156;28;20448;-78
2023/09/11 09:59:57;;;;;;;11.37;8.30;;;23.20;74.80;;;;;;5105671;28;20467;-77
2023/09/11 10:02:28;;;;;;;14.40;8.60;;;23.20;74.70;;;;;;5087569;28;21143;-76
2023/09/11 10:04:57;;;;;;;14.33;9.13;;;23.30;74.40;;;;;;5066072;28;20457;-77
2023/09/11 10:07:38;;;;;;;13.07;8.67;;;23.40;74.40;;;;;;5087741;28;20502;-76
2023/09/11 10:10:21;;;;;;;15.63;9.70;;;23.50;74.20;;;;;;5089501;28;20449;-77
2023/09/11 10:12:54;;;;;;;14.33;9.20;;;23.50;74.10;;;;;;5067403;28;20461;-76
2023/09/11 10:15:23;;;;;;;13.40;9.50;;;23.60;74.10;;;;;;5087091;28;20480;-77
2023/09/11 10:17:54;;;;;;;14.07;9.30;;;23.60;74.00;;;;;;5088328;28;20532;-77
2023/09/11 10:20:23;;;;;;;12.60;8.63;;;23.70;73.80;;;;;;5089581;28;20449;-77
2023/09/11 10:22:54;;;;;;;12.33;8.60;;;23.80;73.60;;;;;;5086187;28;20973;-77
2023/09/11 10:25:23;;;;;;;16.90;9.00;;;23.80;73.50;;;;;;5088082;28;20551;-76
2023/09/11 10:27:54;;;;;;;14.30;7.87;;;23.80;73.70;;;;;;5088022;28;20465;-78
2023/09/11 10:30:26;;;;;;;15.53;9.50;;;23.90;73.70;;;;;;5086290;28;20467;-76
2023/09/11 10:33:00;;;;;;;17.30;9.57;;;24.00;73.50;;;;;;5092178;28;20802;-76
2023/09/11 10:35:31;;;;;;;16.87;9.50;;;24.00;73.20;;;;;;5094200;28;20475;-76
2023/09/11 10:38:01;;;;;;;15.70;9.00;;;24.10;72.90;;;;;;5083053;28;20467;-77
2023/09/11 10:40:31;;;;;;;15.50;10.30;;;24.00;72.80;;;;;;5089734;28;20555;-77
2023/09/11 10:43:01;;;;;;;14.63;10.77;;;24.10;72.90;;;;;;5091323;28;20467;-77
2023/09/11 10:45:30;;;;;;;14.30;8.47;;;24.10;72.70;;;;;;5095011;28;20453;-77
2023/09/11 10:47:58;;;;;;;11.90;8.90;;;24.20;72.60;;;;;;5093590;28;20455;-77
2023/09/11 10:50:32;;;;;;;15.10;9.00;;;24.30;72.50;;;;;;5093357;28;20469;-77
2023/09/11 10:53:00;;;;;;;14.50;9.40;;;24.30;72.40;;;;;;5093439;28;20488;-77
2023/09/11 10:55:28;;;;;;;19.90;10.97;;;24.40;72.40;;;;;;5074831;28;22371;-76
2023/09/11 10:57:59;;;;;;;16.13;9.97;;;24.50;72.20;;;;;;5090357;28;20955;-77
2023/09/11 11:00:27;;;;;;;16.03;9.73;;;24.50;72.00;;;;;;5095071;28;20482;-77
2023/09/11 11:02:56;;;;;;;12.70;9.50;;;24.60;71.80;;;;;;5106590;28;20466;-77
2023/09/11 11:05:27;;;;;;;13.00;9.80;;;24.70;71.70;;;;;;5107385;28;20439;-77
2023/09/11 11:07:56;;;;;;;15.10;9.20;;;24.70;71.40;;;;;;5107855;28;20512;-76
2023/09/11 11:10:24;;;;;;;13.17;9.37;;;24.80;71.20;;;;;;5106355;28;20469;-76
2023/09/11 11:13:06;;;;;;;15.83;9.40;;;24.80;70.90;;;;;;5088453;28;20551;-77
2023/09/11 11:15:35;;;;;;;13.10;8.60;;;24.90;70.60;;;;;;5107522;28;20466;-78
2023/09/11 11:18:09;;;;;;;14.90;8.77;;;24.90;70.40;;;;;;5107169;28;20468;-78
2023/09/11 11:20:38;;;;;;;12.50;8.70;;;25.00;70.10;;;;;;5107259;28;20454;-77
2023/09/11 11:23:08;;;;;;;15.23;8.10;;;25.00;70.00;;;;;;5108817;28;20897;-78
2023/09/11 11:25:36;;;;;;;11.80;8.03;;;25.00;69.80;;;;;;5110049;28;20467;-77
2023/09/11 11:28:15;;;;;;;15.17;8.30;;;25.10;69.50;;;;;;5107722;28;20487;-77
2023/09/11 11:30:45;;;;;;;14.83;8.20;;;25.10;69.30;;;;;;5112139;28;20479;-77
2023/09/11 11:33:16;;;;;;;10.77;7.40;;;25.10;69.20;;;;;;5117300;28;20450;-78
2023/09/11 11:35:45;;;;;;;12.10;8.47;;;25.20;68.80;;;;;;5115191;28;20551;-76
2023/09/11 11:38:16;;;;;;;15.83;8.43;;;25.20;68.60;;;;;;5085178;28;20539;-77
2023/09/11 11:40:47;;;;;;;10.23;7.90;;;25.40;68.20;;;;;;5110189;28;20444;-77
2023/09/11 11:43:17;;;;;;;13.17;8.07;;;25.40;67.70;;;;;;5110339;28;20468;-76
2023/09/11 11:45:47;;;;;;;16.87;7.90;;;25.50;67.30;;;;;;5093022;28;20451;-78
2023/09/11 11:48:15;;;;;;;11.97;8.40;;;25.50;67.20;;;;;;5089764;28;20545;-77
2023/09/11 11:50:43;;;;;;;16.00;7.33;;;25.60;66.90;;;;;;5110628;28;20994;-77
2023/09/11 11:53:15;;;;;;;11.53;7.60;;;25.60;66.70;;;;;;5109704;28;20483;-77
2023/09/11 11:55:44;;;;;;;12.77;7.77;;;25.60;66.50;;;;;;5111107;28;20458;-76
2023/09/11 11:58:13;;;;;;;14.70;8.70;;;25.70;66.50;;;;;;5091526;28;21044;-76
2023/09/11 12:00:56;;;;;;;14.73;7.23;;;25.70;66.40;;;;;;5107167;28;20507;-76
2023/09/11 12:03:24;;;;;;;12.77;6.77;;;25.80;65.90;;;;;;5109283;28;20841;-77
2023/09/11 12:05:52;;;;;;;15.73;6.97;;;25.80;65.70;;;;;;5110587;28;20460;-77
2023/09/11 12:08:21;;;;;;;10.83;7.00;;;25.80;65.60;;;;;;5093791;28;20657;-76
2023/09/11 12:10:49;;;;;;;12.47;7.40;;;25.90;65.20;;;;;;5110031;28;20464;-77
2023/09/11 12:13:18;;;;;;;13.67;6.63;;;25.90;65.00;;;;;;5107373;28;20559;-76
2023/09/11 12:15:53;;;;;;;16.50;7.17;;;26.00;64.70;;;;;;5110264;28;20456;-76
2023/09/11 12:18:22;;;;;;;12.53;6.27;;;26.00;64.20;;;;;;5090484;28;20455;-76
2023/09/11 12:20:52;;;;;;;16.23;6.90;;;26.00;63.60;;;;;;5110694;28;20519;-76
2023/09/11 12:23:22;;;;;;;11.27;6.60;;;26.10;63.40;;;;;;5109887;28;20546;-77
2023/09/11 12:25:51;;;;;;;10.03;6.50;;;26.10;63.00;;;;;;5102196;28;20519;-77
2023/09/11 12:28:19;;;;;;;11.93;6.93;;;26.10;62.80;;;;;;5104919;28;20460;-77
2023/09/11 12:30:48;;;;;;;13.90;6.93;;;26.20;62.50;;;;;;5105667;28;20475;-77
2023/09/11 12:33:23;;;;;;;14.20;6.37;;;26.20;62.50;;;;;;5101150;28;20828;-76
2023/09/11 12:35:53;;;;;;;13.43;6.60;;;26.20;61.90;;;;;;5108282;28;20459;-77
2023/09/11 12:38:21;;;;;;;15.00;7.00;;;26.20;61.70;;;;;;5109064;28;20479;-77
2023/09/11 12:40:50;;;;;;;15.33;6.50;;;26.20;61.10;;;;;;5109616;28;20451;-77
2023/09/11 12:43:19;;;;;;;15.13;7.10;;;26.20;61.00;;;;;;5105285;28;20472;-77
2023/09/11 12:45:49;;;;;;;11.60;5.87;;;26.20;60.60;;;;;;5108838;28;20965;-75
2023/09/11 12:48:18;;;;;;;10.03;5.90;;;26.30;60.20;;;;;;5090901;28;20458;-77